createdAt,value
2018-09-21T00:00:26.991Z,23.2
2018-09-21T00:01:17.826Z,23.2
2018-09-21T00:02:08.484Z,23.2
2018-09-21T00:02:57.904Z,23.3
2018-09-21T00:03:47.097Z,23.2
2018-09-21T00:04:38.398Z,23.2
2018-09-21T00:05:28.377Z,23.2
2018-09-21T00:06:18.764Z,23.2
2018-09-21T00:07:08.242Z,23.2
2018-09-21T00:07:58.623Z,23.2
2018-09-21T00:08:48.439Z,23.2
2018-09-21T00:09:38.906Z,23.2
2018-09-21T00:10:28.119Z,23.2
2018-09-21T00:11:18.858Z,23.2
2018-09-21T00:12:07.823Z,23.2
2018-09-21T00:12:58.758Z,23.2
2018-09-21T00:13:49.050Z,23.2
2018-09-21T00:14:38.891Z,23.2
2018-09-21T00:15:29.325Z,23.2
2018-09-21T00:16:18.366Z,23.2
2018-09-21T00:17:08.716Z,23.2
2018-09-21T00:17:58.725Z,23.2
2018-09-21T00:56:30.909Z,23.1
2018-09-21T00:57:21.132Z,23.1
2018-09-21T00:58:12.038Z,23.2
2018-09-21T00:59:01.253Z,23.2
2018-09-21T00:59:51.875Z,23.2
2018-09-21T01:00:41.968Z,23.2
2018-09-21T01:01:32.818Z,23.2
2018-09-21T01:02:22.070Z,23.2
2018-09-21T01:03:11.918Z,23.2
2018-09-21T01:04:02.485Z,23.2
2018-09-21T01:04:51.425Z,23.2
2018-09-21T01:05:42.017Z,23.2
2018-09-21T01:06:31.798Z,23.2
2018-09-21T01:07:21.277Z,23.2
2018-09-21T01:08:12.521Z,23.1
2018-09-21T01:09:02.023Z,23.2
2018-09-21T01:09:52.387Z,23.2
2018-09-21T01:10:42.167Z,23.2
2018-09-21T01:11:33.267Z,23.1
2018-09-21T01:12:22.524Z,23.2
2018-09-21T01:13:12.597Z,23.2
2018-09-21T01:14:02.385Z,23.2
2018-09-21T01:14:53.304Z,23.2
2018-09-21T01:15:42.774Z,23.2
2018-09-21T01:16:32.771Z,23.2
2018-09-21T01:17:22.288Z,23.2
2018-09-21T01:18:13.574Z,23.2
2018-09-21T01:19:02.264Z,23.2
2018-09-21T01:19:52.526Z,23.2
2018-09-21T01:20:42.301Z,23.1
2018-09-21T01:21:33.162Z,23.2
2018-09-21T01:22:23.608Z,23.2
2018-09-21T01:23:13.336Z,23.2
2018-09-21T01:24:02.581Z,23.2
2018-09-21T01:24:53.465Z,23.2
2018-09-21T01:25:43.527Z,23.2
2018-09-21T01:26:33.850Z,23.1
2018-09-21T01:27:23.444Z,23.2
2018-09-21T01:28:13.723Z,23.2
2018-09-21T01:29:03.749Z,23.2
2018-09-21T01:29:54.189Z,23.2
2018-09-21T01:30:43.430Z,23.1
2018-09-21T01:31:33.398Z,23.2
2018-09-21T01:32:24.425Z,23.1
2018-09-21T01:33:14.100Z,23.2
2018-09-21T01:34:04.194Z,23.2
2018-09-21T01:34:54.231Z,23.2
2018-09-21T01:35:43.741Z,23.1
2018-09-21T01:36:34.943Z,23.2
2018-09-21T01:37:24.356Z,23.1
2018-09-21T01:38:14.511Z,23.2
2018-09-21T01:39:05.090Z,23.1
2018-09-21T01:39:54.623Z,23.1
2018-09-21T01:40:44.680Z,23.2
2018-09-21T01:41:34.440Z,23.1
2018-09-21T01:42:25.283Z,23.1
2018-09-21T01:43:14.320Z,23.2
2018-09-21T01:44:04.406Z,23.1
2018-09-21T01:44:54.408Z,23.1
2018-09-21T01:45:45.024Z,23.2
2018-09-21T01:46:35.355Z,23.1
2018-09-21T01:47:25.520Z,23.1
2018-09-21T01:48:15.712Z,23.2
2018-09-21T01:49:05.062Z,23.1
2018-09-21T01:49:55.116Z,23.2
2018-09-21T01:50:45.282Z,23.1
2018-09-21T01:51:35.184Z,23.1
2018-09-21T01:52:25.760Z,23.1
2018-09-21T01:53:16.186Z,23.1
2018-09-21T01:54:05.649Z,23.1
2018-09-21T01:54:55.376Z,23.1
2018-09-21T01:55:45.823Z,23.2
2018-09-21T01:56:36.135Z,23.1
2018-09-21T01:57:24.841Z,23.1
2018-09-21T01:58:15.436Z,23.1
2018-09-21T01:59:05.731Z,23.1
2018-09-21T01:59:56.098Z,23.1
2018-09-21T02:00:46.144Z,23.1
2018-09-21T02:01:36.199Z,23.1
2018-09-21T02:02:26.889Z,23.1
2018-09-21T02:03:16.079Z,23.1
2018-09-21T02:04:06.719Z,23.1
2018-09-21T02:04:56.776Z,23.1
2018-09-21T02:05:46.293Z,23.1
2018-09-21T02:06:37.805Z,23.1
2018-09-21T02:07:26.781Z,23.2
2018-09-21T02:08:16.924Z,23.1
2018-09-21T02:09:06.586Z,23.1
2018-09-21T02:09:57.125Z,23.1
2018-09-21T02:10:47.189Z,23.1
2018-09-21T02:11:36.941Z,23.1
2018-09-21T02:12:25.036Z,23.1
2018-09-21T02:13:17.023Z,23.1
2018-09-21T02:14:07.132Z,23.1
2018-09-21T02:14:56.708Z,23.1
2018-09-21T02:15:47.593Z,23.1
2018-09-21T02:16:36.699Z,23.1
2018-09-21T02:17:27.677Z,23.1
2018-09-21T02:18:17.789Z,23.1
2018-09-21T02:19:07.835Z,23.1
2018-09-21T02:19:57.633Z,23.1
2018-09-21T02:20:47.093Z,23.1
2018-09-21T02:21:37.448Z,23.1
2018-09-21T02:22:28.294Z,23.1
2018-09-21T02:23:18.485Z,23.1
2018-09-21T02:24:07.625Z,23.1
2018-09-21T02:24:57.694Z,23.1
2018-09-21T02:25:48.237Z,23.1
2018-09-21T02:26:37.485Z,23.1
2018-09-21T02:27:28.138Z,23.1
2018-09-21T02:28:18.500Z,23.1
2018-09-21T02:29:08.828Z,23.1
2018-09-21T02:29:57.421Z,23.1
2018-09-21T02:30:48.438Z,23.1
2018-09-21T02:31:37.997Z,23.1
2018-09-21T02:32:28.855Z,23.1
2018-09-21T02:33:18.970Z,23.1
2018-09-21T02:34:08.745Z,23.1
2018-09-21T02:34:58.457Z,23.1
2018-09-21T02:35:48.802Z,23.1
2018-09-21T02:36:38.855Z,23.1
2018-09-21T02:37:28.924Z,23.1
2018-09-21T02:38:18.931Z,23.1
2018-09-21T02:39:08.507Z,23.1
2018-09-21T02:39:59.622Z,23.1
2018-09-21T02:40:49.434Z,23.1
2018-09-21T02:41:40.635Z,23.1
2018-09-21T02:42:29.582Z,23.1
2018-09-21T02:43:19.449Z,23.1
2018-09-21T02:44:09.454Z,23.1
2018-09-21T02:44:58.624Z,23.1
2018-09-21T02:45:49.542Z,23.1
2018-09-21T02:46:38.862Z,23.1
2018-09-21T02:47:29.191Z,23.1
2018-09-21T02:48:19.723Z,23.1
2018-09-21T02:49:09.326Z,23.1
2018-09-21T02:49:59.677Z,23.1
2018-09-21T02:50:48.885Z,23.1
2018-09-21T02:51:40.368Z,23.1
2018-09-21T02:52:28.851Z,23.1
2018-09-21T02:53:17.687Z,23.1
2018-09-21T02:54:10.133Z,23.1
2018-09-21T02:54:59.786Z,23.1
2018-09-21T02:55:48.998Z,23.1
2018-09-21T02:56:39.558Z,23.1
2018-09-21T02:57:29.529Z,23.1
2018-09-21T02:58:19.186Z,23.1
2018-09-21T02:59:10.103Z,23.1
2018-09-21T03:00:00.231Z,23.1
2018-09-21T03:00:52.171Z,23.1
2018-09-21T03:01:39.746Z,23.1
2018-09-21T03:02:29.975Z,23.1
2018-09-21T03:03:19.883Z,23.1
2018-09-21T03:04:10.735Z,23.1
2018-09-21T03:05:00.061Z,23.1
2018-09-21T03:05:49.751Z,23.1
2018-09-21T03:06:40.419Z,23.1
2018-09-21T03:07:29.068Z,23.1
2018-09-21T03:08:20.288Z,23.1
2018-09-21T03:09:10.940Z,23.1
2018-09-21T03:10:00.155Z,23.1
2018-09-21T03:10:50.398Z,23.1
2018-09-21T03:11:41.089Z,23.1
2018-09-21T03:12:30.495Z,23.1
2018-09-21T03:13:22.628Z,23.1
2018-09-21T03:14:10.722Z,23.1
2018-09-21T03:15:01.588Z,23.1
2018-09-21T03:15:50.531Z,23.1
2018-09-21T03:16:40.585Z,23.1
2018-09-21T03:17:31.713Z,23.1
2018-09-21T03:18:20.906Z,23.1
2018-09-21T03:19:11.187Z,23.1
2018-09-21T03:20:01.427Z,23.1
2018-09-21T03:20:51.303Z,23.1
2018-09-21T03:21:41.555Z,23.1
2018-09-21T03:22:31.569Z,23.1
2018-09-21T03:23:21.692Z,23.1
2018-09-21T03:24:11.691Z,23.1
2018-09-21T03:25:03.073Z,23.1
2018-09-21T03:25:52.165Z,23.1
2018-09-21T03:26:41.827Z,23.1
2018-09-21T03:27:32.805Z,23.1
2018-09-21T03:28:21.362Z,23.1
2018-09-21T03:29:11.824Z,23.1
2018-09-21T03:30:02.970Z,23.1
2018-09-21T03:30:53.187Z,23.1
2018-09-21T03:31:42.711Z,23.1
2018-09-21T03:32:31.964Z,23.1
2018-09-21T03:33:22.688Z,23.1
2018-09-21T03:34:13.489Z,23.1
2018-09-21T03:35:03.244Z,23.1
2018-09-21T03:35:53.869Z,23.1
2018-09-21T03:36:43.149Z,23.1
2018-09-21T03:37:33.203Z,23.1
2018-09-21T03:38:22.892Z,23.1
2018-09-21T03:39:12.953Z,23.1
2018-09-21T03:40:03.569Z,23.1
2018-09-21T03:40:53.326Z,23.1
2018-09-21T03:41:44.226Z,23.1
2018-09-21T03:42:34.303Z,23.1
2018-09-21T03:43:23.245Z,23.1
2018-09-21T03:44:14.111Z,23.1
2018-09-21T03:45:03.995Z,23.1
2018-09-21T03:45:53.666Z,23.1
2018-09-21T03:46:43.594Z,23.1
2018-09-21T03:47:33.871Z,23.1
2018-09-21T03:48:24.438Z,23.1
2018-09-21T03:49:14.840Z,23.1
2018-09-21T03:50:04.650Z,23
2018-09-21T03:50:54.071Z,23.1
2018-09-21T03:51:44.435Z,23.1
2018-09-21T03:52:34.523Z,23.1
2018-09-21T03:53:23.715Z,23.1
2018-09-21T03:54:14.942Z,23.1
2018-09-21T03:55:05.080Z,23
2018-09-21T03:55:54.855Z,23
2018-09-21T03:56:45.365Z,23
2018-09-21T03:57:34.954Z,23.1
2018-09-21T03:58:24.670Z,23.1
2018-09-21T03:59:15.332Z,23.1
2018-09-21T04:00:05.118Z,23.1
2018-09-21T04:00:55.999Z,23.1
2018-09-21T04:01:45.762Z,23.1
2018-09-21T04:02:35.221Z,23
2018-09-21T04:03:25.395Z,23.1
2018-09-21T04:04:15.379Z,23
2018-09-21T04:05:05.729Z,23.1
2018-09-21T04:05:55.747Z,23.1
2018-09-21T04:06:45.661Z,23.1
2018-09-21T04:07:35.463Z,23
2018-09-21T04:08:25.689Z,23
2018-09-21T04:09:16.062Z,23
2018-09-21T04:10:05.526Z,23.1
2018-09-21T04:10:55.932Z,23
2018-09-21T04:11:46.477Z,23
2018-09-21T04:12:36.029Z,23
2018-09-21T04:13:26.097Z,23.1
2018-09-21T04:14:15.558Z,23.1
2018-09-21T04:15:05.626Z,23.1
2018-09-21T04:15:55.726Z,23.1
2018-09-21T04:16:46.403Z,23
2018-09-21T04:17:36.160Z,23
2018-09-21T04:18:26.278Z,23.1
2018-09-21T04:19:15.955Z,23
2018-09-21T04:20:05.798Z,23
2018-09-21T04:20:56.955Z,23
2018-09-21T04:21:46.610Z,23
2018-09-21T04:22:36.808Z,23
2018-09-21T04:23:26.595Z,23
2018-09-21T04:24:17.236Z,23
2018-09-21T04:25:06.162Z,23
2018-09-21T04:25:57.150Z,23.1
2018-09-21T04:26:46.590Z,23.1
2018-09-21T04:27:37.573Z,23
2018-09-21T04:28:27.291Z,23.1
2018-09-21T04:29:17.101Z,23
2018-09-21T04:30:06.120Z,23
2018-09-21T04:30:56.673Z,23
2018-09-21T04:31:47.274Z,23
2018-09-21T04:32:37.220Z,23
2018-09-21T04:33:27.305Z,23
2018-09-21T04:34:17.200Z,23
2018-09-21T04:35:07.482Z,23
2018-09-21T04:35:57.849Z,23
2018-09-21T04:36:47.655Z,23
2018-09-21T04:37:38.272Z,23
2018-09-21T04:38:27.430Z,23
2018-09-21T04:39:18.317Z,23.1
2018-09-21T04:40:07.838Z,23
2018-09-21T04:40:57.943Z,23
2018-09-21T04:41:48.768Z,23.1
2018-09-21T04:42:38.328Z,23
2018-09-21T04:43:28.436Z,23
2018-09-21T04:44:18.121Z,22.9
2018-09-21T04:45:07.487Z,23
2018-09-21T04:46:00.239Z,23
2018-09-21T04:46:48.630Z,23
2018-09-21T04:47:38.394Z,23
2018-09-21T04:48:28.270Z,23
2018-09-21T04:49:18.384Z,23
2018-09-21T04:50:08.833Z,22.9
2018-09-21T04:50:58.573Z,23
2018-09-21T04:51:47.566Z,22.9
2018-09-21T04:52:38.567Z,22.9
2018-09-21T04:53:28.268Z,22.9
2018-09-21T04:54:18.769Z,22.9
2018-09-21T04:55:07.991Z,22.9
2018-09-21T04:55:58.495Z,22.9
2018-09-21T04:56:49.431Z,22.9
2018-09-21T04:57:38.864Z,22.9
2018-09-21T04:58:29.224Z,22.9
2018-09-21T04:59:18.973Z,22.9
2018-09-21T05:00:09.609Z,22.9
2018-09-21T05:00:59.456Z,22.9
2018-09-21T05:01:49.456Z,22.9
2018-09-21T05:02:39.825Z,22.9
2018-09-21T05:03:28.708Z,22.9
2018-09-21T05:04:19.039Z,22.9
2018-09-21T05:05:09.953Z,22.9
2018-09-21T05:06:00.003Z,22.9
2018-09-21T05:06:49.385Z,22.9
2018-09-21T05:07:39.035Z,22.9
2018-09-21T05:25:19.507Z,22.8
2018-09-21T05:26:10.102Z,22.9
2018-09-21T05:27:00.749Z,22.9
2018-09-21T05:27:50.285Z,22.9
2018-09-21T05:28:40.582Z,22.9
2018-09-21T05:29:30.591Z,22.9
2018-09-21T05:30:20.072Z,22.9
2018-09-21T05:31:10.773Z,22.9
2018-09-21T05:32:00.739Z,22.9
2018-09-21T05:32:50.911Z,22.9
2018-09-21T05:33:40.126Z,22.9
2018-09-21T05:34:33.893Z,22.9
2018-09-21T05:35:23.563Z,22.9
2018-09-21T05:36:10.694Z,22.9
2018-09-21T05:37:00.910Z,22.9
2018-09-21T05:37:50.374Z,22.9
2018-09-21T05:38:40.754Z,22.9
2018-09-21T05:39:30.538Z,22.9
2018-09-21T05:40:20.841Z,22.9
2018-09-21T05:41:10.058Z,22.9
2018-09-21T05:42:01.158Z,22.9
2018-09-21T05:42:51.276Z,22.9
2018-09-21T05:43:41.186Z,22.9
2018-09-21T05:44:30.917Z,22.9
2018-09-21T05:45:20.711Z,22.8
2018-09-21T05:46:11.373Z,22.9
2018-09-21T05:47:02.712Z,22.8
2018-09-21T05:47:51.476Z,22.9
2018-09-21T05:48:42.440Z,22.9
2018-09-21T05:49:31.565Z,22.9
2018-09-21T05:50:22.239Z,22.9
2018-09-21T05:51:11.426Z,22.8
2018-09-21T05:52:01.507Z,22.9
2018-09-21T05:52:52.141Z,22.9
2018-09-21T05:53:41.992Z,22.9
2018-09-21T05:54:31.805Z,22.9
2018-09-21T05:55:22.785Z,22.8
2018-09-21T05:56:13.798Z,22.8
2018-09-21T05:57:01.842Z,22.9
2018-09-21T05:57:51.578Z,22.8
2018-09-21T05:58:42.083Z,22.9
2018-09-21T05:59:31.888Z,22.9
2018-09-21T06:00:22.020Z,22.9
2018-09-21T06:01:11.790Z,22.9
2018-09-21T06:02:02.268Z,22.8
2018-09-21T06:02:51.945Z,22.8
2018-09-21T06:03:42.210Z,22.9
2018-09-21T06:04:32.708Z,22.9
2018-09-21T06:05:21.991Z,22.9
2018-09-21T06:06:13.235Z,22.9
2018-09-21T06:07:03.184Z,22.9
2018-09-21T06:07:55.046Z,22.9
2018-09-21T06:08:43.334Z,22.9
2018-09-21T06:09:34.252Z,22.8
2018-09-21T06:10:22.827Z,22.9
2018-09-21T06:11:13.724Z,22.8
2018-09-21T06:12:02.944Z,22.9
2018-09-21T06:12:54.222Z,22.8
2018-09-21T06:13:43.879Z,22.8
2018-09-21T06:14:34.324Z,22.8
2018-09-21T06:15:23.427Z,22.8
2018-09-21T06:16:13.669Z,22.8
2018-09-21T06:17:03.670Z,22.8
2018-09-21T06:17:53.999Z,22.8
2018-09-21T06:18:43.734Z,22.7
2018-09-21T06:19:35.542Z,22.7
2018-09-21T06:20:24.706Z,22.7
2018-09-21T06:21:15.731Z,22.8
2018-09-21T06:22:03.801Z,22.7
2018-09-21T06:22:56.970Z,22.7
2018-09-21T06:23:45.349Z,22.7
2018-09-21T06:24:35.119Z,22.7
2018-09-21T06:25:24.587Z,22.7
2018-09-21T06:26:14.839Z,22.7
2018-09-21T06:27:05.513Z,22.7
2018-09-21T06:27:54.415Z,22.8
2018-09-21T06:28:45.160Z,22.7
2018-09-21T06:29:34.861Z,22.7
2018-09-21T06:30:25.270Z,22.7
2018-09-21T06:31:15.328Z,22.7
2018-09-21T06:32:05.754Z,22.7
2018-09-21T06:32:55.154Z,22.8
2018-09-21T06:33:45.715Z,22.8
2018-09-21T06:34:35.276Z,22.7
2018-09-21T06:35:25.620Z,22.7
2018-09-21T06:36:15.080Z,22.8
2018-09-21T06:37:05.323Z,22.7
2018-09-21T06:37:55.436Z,22.8
2018-09-21T06:38:45.520Z,22.8
2018-09-21T06:39:35.607Z,22.8
2018-09-21T06:40:24.580Z,22.7
2018-09-21T06:41:16.617Z,22.8
2018-09-21T06:42:06.054Z,22.8
2018-09-21T06:42:55.598Z,22.8
2018-09-21T06:43:45.941Z,22.8
2018-09-21T06:44:36.703Z,22.8
2018-09-21T06:45:26.040Z,22.8
2018-09-21T06:46:15.790Z,22.8
2018-09-21T06:47:05.799Z,22.8
2018-09-21T06:47:56.187Z,22.8
2018-09-21T06:48:46.225Z,22.8
2018-09-21T06:49:36.278Z,22.8
2018-09-21T06:50:26.638Z,22.8
2018-09-21T06:51:16.432Z,22.8
2018-09-21T06:52:06.495Z,22.8
2018-09-21T06:52:56.811Z,22.8
2018-09-21T06:53:45.770Z,22.8
2018-09-21T06:54:36.807Z,22.8
2018-09-21T06:55:26.785Z,22.8
2018-09-21T06:56:15.967Z,22.8
2018-09-21T06:57:05.746Z,22.8
2018-09-21T06:57:56.951Z,22.8
2018-09-21T06:58:47.055Z,22.8
2018-09-21T06:59:37.613Z,22.8
2018-09-21T07:00:26.833Z,22.8
2018-09-21T07:01:17.614Z,22.8
2018-09-21T07:02:10.003Z,22.8
2018-09-21T07:02:57.389Z,22.8
2018-09-21T07:03:47.906Z,22.8
2018-09-21T07:04:37.729Z,22.8
2018-09-21T07:05:27.874Z,22.8
2018-09-21T07:06:17.833Z,22.8
2018-09-21T07:07:07.922Z,22.8
2018-09-21T07:07:58.018Z,22.8
2018-09-21T07:08:48.563Z,22.8
2018-09-21T07:09:37.913Z,22.8
2018-09-21T07:10:28.492Z,22.8
2018-09-21T07:11:18.556Z,22.8
2018-09-21T07:12:08.435Z,22.8
2018-09-21T07:12:57.316Z,22.8
2018-09-21T07:13:47.338Z,22.8
2018-09-21T07:14:37.961Z,22.9
2018-09-21T07:15:28.531Z,22.8
2018-09-21T07:16:18.911Z,22.8
2018-09-21T07:17:08.553Z,22.8
2018-09-21T07:17:58.245Z,22.8
2018-09-21T07:18:48.631Z,22.8
2018-09-21T07:19:37.726Z,22.8
2018-09-21T07:20:28.911Z,22.8
2018-09-21T07:21:19.200Z,22.8
2018-09-21T07:22:08.743Z,22.8
2018-09-21T07:22:59.652Z,22.8
2018-09-21T07:23:48.697Z,22.8
2018-09-21T07:24:37.865Z,22.8
2018-09-21T07:25:29.617Z,22.8
2018-09-21T07:26:19.930Z,22.8
2018-09-21T07:27:09.477Z,22.8
2018-09-21T07:28:00.525Z,22.8
2018-09-21T07:28:49.880Z,22.8
2018-09-21T07:29:39.312Z,22.8
2018-09-21T07:30:29.967Z,22.8
2018-09-21T07:31:21.421Z,22.8
2018-09-21T07:32:09.769Z,22.8
2018-09-21T07:32:59.144Z,22.8
2018-09-21T07:33:49.090Z,22.8
2018-09-21T07:34:40.005Z,22.8
2018-09-21T07:35:29.295Z,22.8
2018-09-21T07:36:18.737Z,22.8
2018-09-21T07:37:09.959Z,22.8
2018-09-21T07:37:59.432Z,22.8
2018-09-21T07:38:50.384Z,22.8
2018-09-21T07:39:40.934Z,22.8
2018-09-21T07:40:29.903Z,22.8
2018-09-21T07:41:20.226Z,22.8
2018-09-21T07:42:10.487Z,22.8
2018-09-21T07:43:01.747Z,22.8
2018-09-21T07:43:49.339Z,22.8
2018-09-21T07:44:41.425Z,22.8
2018-09-21T07:45:29.448Z,22.8
2018-09-21T07:46:21.164Z,22.8
2018-09-21T07:47:10.664Z,22.8
2018-09-21T07:48:01.087Z,22.8
2018-09-21T07:48:51.657Z,22.8
2018-09-21T07:49:40.299Z,22.8
2018-09-21T07:50:32.022Z,22.7
2018-09-21T07:51:20.965Z,22.8
2018-09-21T07:52:11.646Z,22.7
2018-09-21T07:53:00.836Z,22.8
2018-09-21T07:53:51.106Z,22.7
2018-09-21T07:54:42.173Z,22.7
2018-09-21T07:55:31.806Z,22.7
2018-09-21T07:56:21.897Z,22.7
2018-09-21T07:57:11.663Z,22.7
2018-09-21T07:58:01.440Z,22.6
2018-09-21T07:58:50.921Z,22.7
2018-09-21T07:59:41.565Z,22.7
2018-09-21T08:00:31.353Z,22.6
2018-09-21T08:01:21.813Z,22.7
2018-09-21T08:02:11.598Z,22.7
2018-09-21T08:03:02.501Z,22.6
2018-09-21T08:03:51.600Z,22.7
2018-09-21T08:04:42.031Z,22.6
2018-09-21T08:05:31.782Z,22.7
2018-09-21T08:06:21.560Z,22.6
2018-09-21T08:07:13.880Z,22.6
2018-09-21T08:08:03.048Z,22.6
2018-09-21T08:08:52.823Z,22.6
2018-09-21T08:09:43.165Z,22.6
2018-09-21T08:10:32.802Z,22.6
2018-09-21T08:11:23.030Z,22.6
2018-09-21T08:12:13.105Z,22.6
2018-09-21T08:13:03.898Z,22.6
2018-09-21T08:13:52.667Z,22.6
2018-09-21T08:14:42.727Z,22.6
2018-09-21T08:15:32.538Z,22.6
2018-09-21T08:16:21.472Z,22.6
2018-09-21T08:17:13.260Z,22.6
2018-09-21T08:18:02.995Z,22.7
2018-09-21T08:18:53.963Z,22.6
2018-09-21T08:19:44.187Z,22.6
2018-09-21T08:20:34.082Z,22.7
2018-09-21T08:21:22.657Z,22.7
2018-09-21T08:22:13.907Z,22.6
2018-09-21T08:23:02.245Z,22.6
2018-09-21T08:23:53.362Z,22.6
2018-09-21T08:24:43.504Z,22.7
2018-09-21T08:25:33.849Z,22.6
2018-09-21T08:26:23.376Z,22.7
2018-09-21T08:27:13.503Z,22.7
2018-09-21T08:28:04.024Z,22.7
2018-09-21T08:28:53.651Z,22.6
2018-09-21T08:29:43.365Z,22.6
2018-09-21T08:30:33.925Z,22.7
2018-09-21T08:31:23.899Z,22.7
2018-09-21T08:32:14.309Z,22.7
2018-09-21T08:33:04.042Z,22.6
2018-09-21T08:33:54.678Z,22.6
2018-09-21T08:34:44.016Z,22.7
2018-09-21T08:35:34.367Z,22.7
2018-09-21T08:36:25.235Z,22.7
2018-09-21T08:37:16.622Z,22.7
2018-09-21T08:38:05.094Z,22.7
2018-09-21T08:38:54.401Z,22.7
2018-09-21T08:39:43.726Z,22.7
2018-09-21T08:40:34.419Z,22.7
2018-09-21T08:41:24.276Z,22.7
2018-09-21T08:42:15.275Z,22.7
2018-09-21T08:43:05.411Z,22.7
2018-09-21T08:43:55.433Z,22.7
2018-09-21T08:44:44.034Z,22.7
2018-09-21T08:45:37.245Z,22.8
2018-09-21T08:46:24.673Z,22.7
2018-09-21T08:47:15.415Z,22.8
2018-09-21T08:48:05.067Z,22.8
2018-09-21T08:48:55.917Z,22.8
2018-09-21T08:49:45.933Z,22.8
2018-09-21T08:50:35.735Z,22.8
2018-09-21T08:51:26.033Z,22.8
2018-09-21T08:52:15.593Z,22.8
2018-09-21T08:53:04.377Z,22.8
2018-09-21T08:53:55.610Z,22.8
2018-09-21T08:54:46.623Z,22.8
2018-09-21T08:55:35.568Z,22.8
2018-09-21T08:56:26.960Z,22.8
2018-09-21T08:57:16.300Z,22.8
2018-09-21T08:58:06.577Z,22.8
2018-09-21T08:58:55.832Z,22.8
2018-09-21T08:59:45.880Z,22.8
2018-09-21T09:00:35.095Z,22.8
2018-09-21T09:01:26.465Z,22.8
2018-09-21T09:02:17.450Z,22.8
2018-09-21T09:03:10.165Z,22.8
2018-09-21T09:03:57.414Z,22.8
2018-09-21T09:04:48.004Z,22.8
2018-09-21T09:05:37.198Z,22.8
2018-09-21T09:06:27.859Z,22.8
2018-09-21T09:07:18.395Z,22.8
2018-09-21T09:08:06.887Z,22.8
2018-09-21T09:08:57.112Z,22.8
2018-09-21T09:09:46.468Z,22.8
2018-09-21T09:10:36.448Z,22.8
2018-09-21T09:11:26.770Z,22.8
2018-09-21T09:12:17.159Z,22.8
2018-09-21T09:13:06.957Z,22.8
2018-09-21T09:13:56.872Z,22.8
2018-09-21T09:14:47.321Z,22.8
2018-09-21T09:15:37.694Z,22.8
2018-09-21T09:16:27.089Z,22.8
2018-09-21T09:17:17.864Z,22.8
2018-09-21T09:18:07.302Z,22.8
2018-09-21T09:18:57.631Z,22.8
2018-09-21T09:19:47.091Z,22.8
2018-09-21T09:20:37.584Z,22.8
2018-09-21T09:21:28.340Z,22.8
2018-09-21T09:22:18.454Z,22.8
2018-09-21T09:23:09.003Z,22.8
2018-09-21T09:40:05.244Z,22.8
2018-09-21T09:40:55.025Z,22.8
2018-09-21T09:41:46.196Z,22.9
2018-09-21T09:42:35.350Z,22.9
2018-09-21T09:43:27.699Z,22.9
2018-09-21T09:44:16.425Z,22.9
2018-09-21T09:45:06.706Z,22.9
2018-09-21T09:45:55.469Z,22.9
2018-09-21T09:46:45.990Z,22.9
2018-09-21T09:47:36.332Z,22.9
2018-09-21T09:48:27.102Z,22.9
2018-09-21T09:49:18.101Z,22.9
2018-09-21T09:50:06.617Z,22.9
2018-09-21T09:50:55.455Z,22.9
2018-09-21T09:51:46.183Z,22.9
2018-09-21T09:52:36.177Z,22.9
2018-09-21T09:53:26.530Z,22.9
2018-09-21T09:54:16.832Z,22.9
2018-09-21T09:55:07.745Z,22.9
2018-09-21T09:55:56.168Z,22.9
2018-09-21T09:56:46.521Z,22.9
2018-09-21T09:57:37.102Z,22.9
2018-09-21T09:58:26.581Z,22.9
2018-09-21T09:59:17.254Z,22.9
2018-09-21T10:00:06.161Z,22.9
2018-09-21T10:00:56.964Z,22.9
2018-09-21T10:01:47.144Z,22.9
2018-09-21T10:02:36.926Z,22.9
2018-09-21T10:03:26.893Z,22.9
2018-09-21T10:04:17.665Z,22.9
2018-09-21T10:05:07.429Z,22.9
2018-09-21T10:05:56.348Z,22.9
2018-09-21T10:06:47.265Z,23
2018-09-21T10:07:36.223Z,22.9
2018-09-21T10:08:27.399Z,23
2018-09-21T10:09:17.810Z,23
2018-09-21T10:10:08.029Z,23
2018-09-21T10:10:57.903Z,23
2018-09-21T10:11:47.613Z,23
2018-09-21T10:12:37.466Z,23
2018-09-21T10:13:27.288Z,23
2018-09-21T10:14:17.812Z,23
2018-09-21T10:15:07.405Z,23
2018-09-21T10:15:57.840Z,23
2018-09-21T10:16:47.578Z,22.9
2018-09-21T10:17:37.901Z,23
2018-09-21T10:18:27.125Z,23
2018-09-21T10:19:18.275Z,23
2018-09-21T10:20:07.578Z,23
2018-09-21T10:20:59.517Z,23
2018-09-21T10:21:47.435Z,23
2018-09-21T10:22:38.178Z,23
2018-09-21T10:23:28.025Z,23
2018-09-21T10:24:19.349Z,23
2018-09-21T10:25:08.933Z,22.9
2018-09-21T10:25:59.242Z,23
2018-09-21T10:26:49.346Z,23.1
2018-09-21T10:27:45.201Z,23
2018-09-21T10:28:36.705Z,23
2018-09-21T10:29:19.533Z,23
2018-09-21T10:30:09.255Z,23
2018-09-21T10:31:00.071Z,23.1
2018-09-21T10:31:49.579Z,23
2018-09-21T10:32:38.369Z,23
2018-09-21T10:33:31.549Z,23.1
2018-09-21T10:34:19.101Z,23
2018-09-21T10:35:09.559Z,23.1
2018-09-21T10:36:00.049Z,23.1
2018-09-21T10:36:50.137Z,23.1
2018-09-21T10:37:39.136Z,23
2018-09-21T10:38:29.953Z,23.1
2018-09-21T10:39:22.794Z,23.1
2018-09-21T10:40:13.332Z,23
2018-09-21T10:41:00.532Z,23.1
2018-09-21T10:41:50.134Z,23.1
2018-09-21T10:42:42.754Z,23.1
2018-09-21T10:43:29.524Z,23.1
2018-09-21T10:44:20.143Z,23.1
2018-09-21T10:45:12.261Z,23.1
2018-09-21T10:46:00.781Z,23.1
2018-09-21T10:46:50.674Z,23.1
2018-09-21T10:47:42.162Z,23.1
2018-09-21T10:48:30.175Z,23.1
2018-09-21T10:49:19.963Z,23.1
2018-09-21T10:50:10.244Z,23.1
2018-09-21T10:51:02.564Z,23.1
2018-09-21T10:51:49.696Z,23.1
2018-09-21T10:52:40.995Z,23.1
2018-09-21T10:53:30.375Z,23.1
2018-09-21T10:54:20.030Z,23.1
2018-09-21T10:55:10.418Z,23.1
2018-09-21T10:56:00.108Z,23.1
2018-09-21T10:56:51.448Z,23.1
2018-09-21T10:57:41.212Z,23.1
2018-09-21T10:58:31.288Z,23.1
2018-09-21T10:59:20.565Z,23.1
2018-09-21T11:00:10.324Z,23.1
2018-09-21T11:01:01.211Z,23.1
2018-09-21T11:01:51.894Z,23.1
2018-09-21T11:02:40.931Z,23.1
2018-09-21T11:03:31.391Z,23.1
2018-09-21T11:04:21.590Z,23.1
2018-09-21T11:05:10.405Z,23.1
2018-09-21T11:06:01.769Z,23.1
2018-09-21T11:06:51.270Z,23.1
2018-09-21T11:07:41.627Z,23.1
2018-09-21T11:08:32.177Z,23.1
2018-09-21T11:09:22.329Z,23.1
2018-09-21T11:10:12.095Z,23.1
2018-09-21T11:11:01.353Z,23.1
2018-09-21T11:11:52.313Z,23.1
2018-09-21T11:12:42.352Z,23.1
2018-09-21T11:13:32.401Z,23.1
2018-09-21T11:14:21.986Z,23.1
2018-09-21T11:15:11.761Z,23.1
2018-09-21T11:16:03.036Z,23.1
2018-09-21T11:16:52.471Z,23.2
2018-09-21T11:17:42.943Z,23.1
2018-09-21T11:18:32.503Z,23.1
2018-09-21T11:19:21.960Z,23.1
2018-09-21T11:20:12.378Z,23.1
2018-09-21T11:21:02.656Z,23.1
2018-09-21T11:21:53.078Z,23.1
2018-09-21T11:22:41.371Z,23.2
2018-09-21T11:23:32.294Z,23.1
2018-09-21T11:24:22.736Z,23.1
2018-09-21T11:25:13.015Z,23.1
2018-09-21T11:26:03.046Z,23.1
2018-09-21T11:26:53.084Z,23.1
2018-09-21T11:27:42.663Z,23.2
2018-09-21T11:28:33.283Z,23.1
2018-09-21T11:29:22.517Z,23.1
2018-09-21T11:30:12.023Z,23.1
2018-09-21T11:31:03.753Z,23.1
2018-09-21T11:31:52.675Z,23.2
2018-09-21T11:32:43.260Z,23.2
2018-09-21T11:33:34.001Z,23.2
2018-09-21T11:34:23.165Z,23.2
2018-09-21T11:35:13.780Z,23.2
2018-09-21T11:36:03.534Z,23.2
2018-09-21T11:36:54.147Z,23.1
2018-09-21T11:37:43.496Z,23.1
2018-09-21T11:38:33.549Z,23.2
2018-09-21T11:39:21.652Z,23.2
2018-09-21T11:40:14.164Z,23.2
2018-09-21T11:41:04.388Z,23.1
2018-09-21T11:41:53.310Z,23.2
2018-09-21T11:42:44.318Z,23.1
2018-09-21T11:43:34.187Z,23.2
2018-09-21T11:44:23.947Z,23.2
2018-09-21T11:45:12.898Z,23.2
2018-09-21T11:46:04.204Z,23.2
2018-09-21T11:46:58.748Z,23.1
2018-09-21T11:47:47.138Z,23.2
2018-09-21T11:48:34.776Z,23.2
2018-09-21T11:49:24.286Z,23.2
2018-09-21T11:50:14.064Z,23.2
2018-09-21T11:51:05.039Z,23.2
2018-09-21T11:51:55.004Z,23.2
2018-09-21T11:52:45.333Z,23.2
2018-09-21T11:53:35.136Z,23.2
2018-09-21T11:54:25.216Z,23.2
2018-09-21T11:55:14.445Z,23.2
2018-09-21T11:56:05.121Z,23.2
2018-09-21T11:56:55.422Z,23.2
2018-09-21T11:57:45.451Z,23.2
2018-09-21T11:58:34.969Z,23.2
2018-09-21T11:59:25.361Z,23.2
2018-09-21T12:00:15.079Z,23.2
2018-09-21T12:01:05.672Z,23.2
2018-09-21T12:01:56.168Z,23.2
2018-09-21T12:02:45.635Z,23.2
2018-09-21T12:03:35.583Z,23.2
2018-09-21T12:04:25.250Z,23.2
2018-09-21T12:05:15.035Z,23.2
2018-09-21T12:06:05.228Z,23.2
2018-09-21T12:06:56.468Z,23.2
2018-09-21T12:07:45.673Z,23.2
2018-09-21T12:08:36.410Z,23.3
2018-09-21T12:09:26.615Z,23.3
2018-09-21T12:10:16.883Z,23.2
2018-09-21T12:11:06.464Z,23.2
2018-09-21T12:11:56.498Z,23.2
2018-09-21T12:12:46.520Z,23.2
2018-09-21T12:13:37.698Z,23.3
2018-09-21T12:14:25.825Z,23.3
2018-09-21T12:15:16.993Z,23.2
2018-09-21T12:16:09.963Z,23.2
2018-09-21T12:16:57.649Z,23.2
2018-09-21T12:17:47.767Z,23.3
2018-09-21T12:18:37.293Z,23.3
2018-09-21T12:19:28.183Z,23.2
2018-09-21T12:20:17.363Z,23.3
2018-09-21T12:21:06.849Z,23.2